FHV33 KLAX-KSNA
Flight info
| Callsign | FHV33 |
|---|---|
| Flight time | N/A |
| Altitude | 5000 |
| Route | |
| Aircraft | B350/L-VGD/C |
Departure
| Time | 2026-04-20 01:59 |
|---|---|
| Airport | Los Angeles International Airport (KLAX) |
Arrival
| Time | N/A |
|---|---|
| Airport | John Wayne Orange County International Airport (KSNA) |
| Time | Latitude | Longitude | Altitude | Speed | Heading |
|---|---|---|---|---|---|
| 2026-04-20 01:29 | 33.93353 | -118.39693 | 111 ft | 0 kts | 288° |
| 2026-04-20 01:48 | 33.93363 | -118.39733 | 111 ft | 11 kts | 286° |
| 2026-04-20 01:48 | 33.93414 | -118.39812 | 112 ft | 14 kts | 354° |
| 2026-04-20 01:48 | 33.93465 | -118.39705 | 111 ft | 19 kts | 82° |
| 2026-04-20 01:49 | 33.93489 | -118.39506 | 108 ft | 28 kts | 81° |
| 2026-04-20 01:49 | 33.93510 | -118.39278 | 106 ft | 24 kts | 83° |
| 2026-04-20 01:49 | 33.93525 | -118.39114 | 104 ft | 20 kts | 86° |
| 2026-04-20 01:49 | 33.93548 | -118.38911 | 103 ft | 28 kts | 82° |
| 2026-04-20 01:50 | 33.93569 | -118.38696 | 102 ft | 27 kts | 83° |
| 2026-04-20 01:50 | 33.93588 | -118.38514 | 102 ft | 20 kts | 83° |
| 2026-04-20 01:50 | 33.93606 | -118.38329 | 101 ft | 17 kts | 83° |
| 2026-04-20 01:50 | 33.93630 | -118.38284 | 100 ft | 2 kts | 29° |
| 2026-04-20 01:51 | 33.93637 | -118.38281 | 100 ft | 0 kts | 22° |
| 2026-04-20 01:58 | 33.93658 | -118.38277 | 101 ft | 9 kts | 359° |
| 2026-04-20 01:59 | 33.93727 | -118.38348 | 101 ft | 19 kts | 268° |
| 2026-04-20 01:59 | 33.93681 | -118.38844 | 103 ft | 106 kts | 262° |
| 2026-04-20 01:59 | 33.93546 | -118.39804 | 649 ft | 122 kts | 251° |
| 2026-04-20 01:59 | 33.93271 | -118.40790 | 1317 ft | 139 kts | 255° |
| 2026-04-20 02:00 | 33.93033 | -118.42016 | 1884 ft | 159 kts | 255° |
| 2026-04-20 02:00 | 33.92765 | -118.43358 | 2280 ft | 176 kts | 259° |
| 2026-04-20 02:00 | 33.92604 | -118.44843 | 2771 ft | 182 kts | 254° |
| 2026-04-20 02:00 | 33.91874 | -118.46057 | 3300 ft | 184 kts | 215° |
| 2026-04-20 02:01 | 33.90805 | -118.46913 | 3955 ft | 186 kts | 212° |
| 2026-04-20 02:01 | 33.89755 | -118.47755 | 4649 ft | 185 kts | 212° |
| 2026-04-20 02:01 | 33.88628 | -118.48672 | 4877 ft | 210 kts | 212° |
| 2026-04-20 02:01 | 33.87353 | -118.49719 | 4899 ft | 223 kts | 213° |
| 2026-04-20 02:02 | 33.86065 | -118.50781 | 4896 ft | 229 kts | 212° |
| 2026-04-20 02:02 | 33.84713 | -118.51880 | 4900 ft | 239 kts | 213° |
| 2026-04-20 02:02 | 33.83300 | -118.53015 | 4904 ft | 246 kts | 212° |
| 2026-04-20 02:02 | 33.81875 | -118.54160 | 4884 ft | 243 kts | 212° |
| 2026-04-20 02:03 | 33.80505 | -118.55252 | 4975 ft | 229 kts | 212° |
| 2026-04-20 02:03 | 33.79203 | -118.56300 | 4973 ft | 223 kts | 212° |
| 2026-04-20 02:03 | 33.77885 | -118.57243 | 4973 ft | 216 kts | 198° |
| 2026-04-20 02:03 | 33.76437 | -118.57298 | 4980 ft | 209 kts | 163° |
| 2026-04-20 02:04 | 33.75262 | -118.56329 | 4977 ft | 205 kts | 127° |
| 2026-04-20 02:04 | 33.74814 | -118.54721 | 4991 ft | 208 kts | 94° |
| 2026-04-20 02:04 | 33.74810 | -118.52981 | 4992 ft | 212 kts | 91° |
| 2026-04-20 02:04 | 33.74820 | -118.51189 | 4990 ft | 218 kts | 91° |
| 2026-04-20 02:05 | 33.74832 | -118.49344 | 4990 ft | 222 kts | 91° |
| 2026-04-20 02:05 | 33.74844 | -118.47464 | 4992 ft | 225 kts | 91° |
| 2026-04-20 02:05 | 33.74857 | -118.45583 | 4990 ft | 227 kts | 91° |
| 2026-04-20 02:05 | 33.74869 | -118.43681 | 4981 ft | 226 kts | 91° |
| 2026-04-20 02:06 | 33.74881 | -118.41817 | 4983 ft | 225 kts | 91° |
| 2026-04-20 02:06 | 33.74896 | -118.39937 | 4983 ft | 224 kts | 91° |
| 2026-04-20 02:06 | 33.74910 | -118.38081 | 4983 ft | 223 kts | 91° |
| 2026-04-20 02:06 | 33.74924 | -118.36196 | 4984 ft | 223 kts | 91° |
| 2026-04-20 02:07 | 33.74939 | -118.34349 | 4982 ft | 222 kts | 91° |
| 2026-04-20 02:07 | 33.74946 | -118.33321 | 4983 ft | 220 kts | 91° |